OOCL Asia — VRBQ6 — position and weather

sailwx.info

Track history (hours):
 
Tides and Currents Weather Stations Pressure Air Temp Water Temp Dewpoint Dewpoint Depression Visibility Wind Speed Wind Dir Waves Ship Positions

OOCL Asia

Last reported at 2018-Jun-25 09:30 UTC. Time now 2018-Jun-25 09:35 UTC.
Position N 49°46' W 008°03'.

Length 323 m; beam 42.8 m; draft 14.5 m.

Type: Cargo ship. MMSI: 477105600.

Date/timePositionNaut miles runAvg speedWind from/ knotsBaromVisibWave heightAir tempDewpointWater temp
2018-Jun-25 09:30N 49°46' W 008°03'1020.3
2018-Jun-25 09:00N 49°45' W 007°47'1020.2
2018-Jun-25 08:30N 49°44' W 007°32'1020.3
2018-Jun-25 08:00N 49°44' W 007°16'1020.3
2018-Jun-25 07:30N 49°43' W 007°01'918.6
2018-Jun-25 07:00N 49°43' W 006°46'816.3
2018-Jun-25 06:30N 49°43' W 006°34'816.2
2018-Jun-25 06:00N 49°43' W 006°21'251597.9
2018-Jun-25 06:00N 49°42' W 005°42'1735.7 090 / 71023.010.8 18.0 4.514.0
2018-Jun-25 05:30N 49°42' W 006°09'815.7
2018-Jun-25 05:00N 49°43' W 005°56'815.6
2018-Jun-25 04:31N 49°43' W 005°45'815.4
2018-Jun-25 04:00N 49°43' W 005°33'915.4
2018-Jun-25 03:26N 49°43' W 005°19'615.1
2018-Jun-25 03:00N 49°44' W 005°09'714.6
2018-Jun-25 02:30N 49°44' W 004°58'715.0
2018-Jun-25 02:00N 49°45' W 004°46'815.1
2018-Jun-25 01:30N 49°46' W 004°35'815.3
2018-Jun-25 01:01N 49°48' W 004°23'815.5
2018-Jun-25 00:30N 49°49' W 004°11'815.9
2018-Jun-25 00:00N 49°51' W 003°59'816.2
2018-Jun-24 23:30N 49°52' W 003°47'816.5
2018-Jun-24 23:00N 49°54' W 003°34'816.7
2018-Jun-24 22:30N 49°55' W 003°22'816.8
2018-Jun-24 22:00N 49°57' W 003°09'816.4
2018-Jun-24 21:30N 49°59' W 002°57'816.2
2018-Jun-24 21:01N 50°01' W 002°44'815.7
2018-Jun-24 20:30N 50°03' W 002°32'815.1
2018-Jun-24 20:00N 50°04' W 002°21'714.4
2018-Jun-24 19:30N 50°04' W 002°10'713.8
2018-Jun-24 19:00N 50°05' W 001°59'612.9
2018-Jun-24 18:30N 50°04' W 001°49'713.4
2018-Jun-24 18:00N 49°59' W 001°42'1012.5
2018-Jun-24 17:12N 49°54' W 001°28'312.2
2018-Jun-24 16:59N 49°53' W 001°24'612.1
2018-Jun-24 16:30N 49°51' W 001°16'612.2
2018-Jun-24 16:00N 49°49' W 001°07'713.1
2018-Jun-24 15:31N 49°46' W 000°58'714.3
2018-Jun-24 15:01N 49°43' W 000°48'815.2
2018-Jun-24 14:31N 49°40' W 000°37'815.8
2018-Jun-24 14:00N 49°36' W 000°26'815.9
2018-Jun-24 13:31N 49°33' W 000°15'714.6
2018-Jun-24 13:01N 49°31' W 000°04'714.3
2018-Jun-24 12:30N 49°29' E 000°06'3 5.0
2018-Jun-24 12:00N 49°29' E 000°10'0 0.0
2018-Jun-24 11:29N 49°29' E 000°10'0 0.0
2018-Jun-24 10:59N 49°29' E 000°10'0 0.0
2018-Jun-24 10:29N 49°29' E 000°10'0 0.0
2018-Jun-24 09:59N 49°29' E 000°10'0 0.0
2018-Jun-24 09:29N 49°29' E 000°10'0 0.0
2018-Jun-24 08:59N 49°29' E 000°10'0 0.0
2018-Jun-24 08:29N 49°29' E 000°10'0 0.0
2018-Jun-24 07:59N 49°29' E 000°10'0 0.0
2018-Jun-24 07:29N 49°29' E 000°10'0 0.0
2018-Jun-24 06:59N 49°29' E 000°10'0 0.0
2018-Jun-24 06:29N 49°29' E 000°10'0 0.0
2018-Jun-24 05:59N 49°29' E 000°10'0 0.0
2018-Jun-24 05:29N 49°29' E 000°10'0 0.0
2018-Jun-24 04:59N 49°29' E 000°10'0 0.0
2018-Jun-24 04:29N 49°29' E 000°10'0 0.0
2018-Jun-24 03:59N 49°29' E 000°10'0 0.0
2018-Jun-24 03:29N 49°29' E 000°10'0 0.0
2018-Jun-24 02:59N 49°29' E 000°10'0 0.0
2018-Jun-24 02:29N 49°29' E 000°10'0 0.0
2018-Jun-24 01:59N 49°29' E 000°10'0 0.0
2018-Jun-24 01:29N 49°29' E 000°10'0 0.0
2018-Jun-24 00:59N 49°29' E 000°10'0 0.0
2018-Jun-24 00:29N 49°29' E 000°10'0 0.0
2018-Jun-23 23:59N 49°29' E 000°10'0 0.0
2018-Jun-23 23:29N 49°29' E 000°10'0 0.0
2018-Jun-23 22:59N 49°29' E 000°10'0 0.0
2018-Jun-23 22:29N 49°29' E 000°10'0 0.0
2018-Jun-23 21:59N 49°29' E 000°10'0 0.0
2018-Jun-23 21:29N 49°29' E 000°10'0 0.0
2018-Jun-23 20:59N 49°29' E 000°10'0 0.0
2018-Jun-23 20:29N 49°29' E 000°10'0 0.0
2018-Jun-23 19:59N 49°29' E 000°10'0 0.0
2018-Jun-23 19:29N 49°29' E 000°10'0 0.1
2018-Jun-23 19:01N 49°29' E 000°10'1 2.9
2018-Jun-23 18:30N 49°28' E 000°08'4 8.3
2018-Jun-23 18:00N 49°30' E 000°02'713.5
2018-Jun-23 17:30N 49°32' W 000°08'4 7.4
2018-Jun-23 17:00N 49°33' W 000°13'5 9.9
2018-Jun-23 16:30N 49°37' W 000°19'611.5
2018-Jun-23 16:00N 49°42' W 000°21'612.5
2018-Jun-23 15:30N 49°48' W 000°24'612.6
2018-Jun-23 15:00N 49°54' W 000°22'612.7
2018-Jun-23 14:30N 50°01' W 000°19'612.9
2018-Jun-23 14:00N 50°07' W 000°16'713.3
2018-Jun-23 13:30N 50°13' W 000°12'713.9
2018-Jun-23 13:00N 50°19' W 000°08'714.5
2018-Jun-23 12:30N 50°26' W 000°03'713.7
2018-Jun-23 12:00N 50°30' E 000°06'713.9
2018-Jun-23 11:30N 50°32' E 000°16'713.8
2018-Jun-23 11:01N 50°35' E 000°26'713.7
2018-Jun-23 10:30N 50°38' E 000°36'713.9
2018-Jun-23 10:00N 50°42' E 000°45'714.9
2018-Jun-23 09:30N 50°47' E 000°54'714.6
2018-Jun-23 09:00N 50°51' E 001°03'714.1
2018-Jun-23 08:31N 50°56' E 001°11'713.5
2018-Jun-23 08:00N 51°00' E 001°20'713.1
2018-Jun-23 07:30N 51°04' E 001°28'714.1
2018-Jun-23 07:00N 51°09' E 001°36'713.0
2018-Jun-23 06:30N 51°13' E 001°44'713.4
2018-Jun-23 06:00N 51°19' E 001°51'713.7
2018-Jun-23 05:30N 51°24' E 001°57'714.4
2018-Jun-23 05:00N 51°30' E 002°03'815.6
2018-Jun-23 04:30N 51°37' E 002°10'815.9
2018-Jun-23 04:00N 51°42' E 002°19'714.5
2018-Jun-23 03:30N 51°48' E 002°27'714.4
2018-Jun-23 03:00N 51°53' E 002°34'714.3
2018-Jun-23 02:30N 51°59' E 002°42'714.0
2018-Jun-23 02:00N 52°04' E 002°49'714.2
2018-Jun-23 01:30N 52°10' E 002°57'714.1
2018-Jun-23 01:00N 52°16' E 003°02'714.0
2018-Jun-23 00:30N 52°21' E 003°09'713.9
2018-Jun-23 00:00N 52°27' E 003°17'714.3
2018-Jun-22 23:30N 52°32' E 003°24'714.2
2018-Jun-22 23:01N 52°38' E 003°31'713.8
2018-Jun-22 22:30N 52°43' E 003°38'613.2
2018-Jun-22 22:00N 52°48' E 003°45'713.5
2018-Jun-22 21:30N 52°53' E 003°52'713.8
2018-Jun-22 21:00N 52°58' E 004°01'914.4
2018-Jun-22 20:21N 53°04' E 004°13'514.8
2018-Jun-22 20:00N 53°07' E 004°20'816.2
2018-Jun-22 19:30N 53°14' E 004°27'918.1
2018-Jun-22 19:00N 53°22' E 004°33'917.0
2018-Jun-22 18:30N 53°29' E 004°42'917.4
2018-Jun-22 18:00N 53°33' E 004°55'816.9
2018-Jun-22 17:30N 53°36' E 005°08'816.5
2018-Jun-22 17:00N 53°39' E 005°21'916.1
2018-Jun-22 16:28N 53°42' E 005°35'1015.5
2018-Jun-22 15:50N 53°45' E 005°51'7514.0
2018-Jun-22 10:29N 53°52' E 007°58'816.5
2018-Jun-22 10:00N 53°47' E 008°09'917.8
2018-Jun-22 09:30N 53°42' E 008°21'815.4
2018-Jun-22 09:00N 53°36' E 008°30'1 2.8
2018-Jun-22 08:30N 53°35' E 008°32'0 0.0
2018-Jun-22 08:00N 53°35' E 008°32'0 0.0
2018-Jun-22 07:30N 53°35' E 008°32'0 0.0
2018-Jun-22 07:00N 53°35' E 008°32'0 0.0
2018-Jun-22 06:30N 53°35' E 008°32'0 0.0
2018-Jun-22 06:00N 53°35' E 008°32'0 0.0
2018-Jun-22 05:30N 53°35' E 008°32'0 0.0
2018-Jun-22 05:00N 53°35' E 008°32'0 0.0
2018-Jun-22 04:30N 53°35' E 008°32'0 0.0
2018-Jun-22 04:00N 53°35' E 008°32'0 0.0
2018-Jun-22 03:30N 53°35' E 008°32'0 0.0
2018-Jun-22 03:00N 53°35' E 008°32'0 0.0
2018-Jun-22 02:30N 53°35' E 008°32'0 0.0
2018-Jun-22 02:00N 53°35' E 008°32'0 0.0
2018-Jun-22 01:30N 53°35' E 008°32'0 0.0
2018-Jun-22 00:57N 53°35' E 008°32'0 0.0
2018-Jun-22 00:30N 53°35' E 008°32'0 0.0
2018-Jun-22 00:00N 53°35' E 008°32'0 0.1
2018-Jun-21 23:30N 53°35' E 008°32'0 0.0
2018-Jun-21 23:00N 53°35' E 008°32'0 0.0
2018-Jun-21 22:30N 53°35' E 008°32'0 0.0
2018-Jun-21 22:00N 53°35' E 008°32'0 0.0
2018-Jun-21 21:30N 53°35' E 008°32'0 0.0
2018-Jun-21 21:00N 53°35' E 008°32'0 0.0
2018-Jun-21 20:30N 53°35' E 008°32'0 0.0
2018-Jun-21 20:00N 53°35' E 008°32'0 0.0
2018-Jun-21 19:30N 53°35' E 008°32'0 0.0
2018-Jun-21 19:00N 53°35' E 008°32'0 0.0
2018-Jun-21 18:30N 53°35' E 008°32'0 0.0
2018-Jun-21 18:00N 53°35' E 008°32'0 0.0
2018-Jun-21 17:30N 53°35' E 008°32'0 0.0
2018-Jun-21 17:00N 53°35' E 008°32'0 0.0
2018-Jun-21 16:30N 53°35' E 008°32'0 0.0
2018-Jun-21 16:00N 53°35' E 008°32'0 0.0
2018-Jun-21 15:30N 53°35' E 008°32'0 0.0
2018-Jun-21 15:00N 53°35' E 008°32'0 0.0
2018-Jun-21 14:30N 53°35' E 008°32'0 0.0
2018-Jun-21 14:00N 53°35' E 008°32'0 0.0
2018-Jun-21 13:30N 53°35' E 008°32'0 0.1
2018-Jun-21 13:00N 53°35' E 008°32'0 0.1
2018-Jun-21 12:30N 53°35' E 008°32'0 0.0
2018-Jun-21 12:00N 53°35' E 008°32'0 0.0
2018-Jun-21 11:30N 53°35' E 008°32'0 0.0
2018-Jun-21 11:00N 53°35' E 008°32'0 0.0
2018-Jun-21 10:30N 53°35' E 008°32'0 0.0
2018-Jun-21 10:00N 53°35' E 008°32'0 0.0
2018-Jun-21 09:30N 53°35' E 008°32'0 0.0
2018-Jun-21 09:00N 53°35' E 008°32'0 0.0
2018-Jun-21 08:30N 53°35' E 008°32'0 0.0
2018-Jun-21 08:00N 53°35' E 008°32'0 0.0
2018-Jun-21 07:30N 53°35' E 008°32'0 0.0
2018-Jun-21 07:00N 53°35' E 008°32'0 0.0
2018-Jun-21 06:30N 53°35' E 008°32'0 0.0
2018-Jun-21 06:00N 53°35' E 008°32'0 0.0
2018-Jun-21 05:30N 53°35' E 008°32'0 0.0
2018-Jun-21 05:00N 53°35' E 008°32'0 0.0
2018-Jun-21 04:30N 53°35' E 008°32'0 0.0
2018-Jun-21 04:00N 53°35' E 008°32'0 0.0
2018-Jun-21 03:30N 53°35' E 008°32'0 0.0
2018-Jun-21 03:00N 53°35' E 008°32'0 0.4
2018-Jun-21 02:30N 53°35' E 008°32'2 3.1
2018-Jun-21 02:00N 53°36' E 008°30'713.7
2018-Jun-21 01:30N 53°41' E 008°21'815.7
2018-Jun-21 01:00N 53°46' E 008°11'919.0
2018-Jun-21 00:30N 53°51' E 007°58'812.8
2018-Jun-20 23:51N 53°53' E 007°44'5311.8
2018-Jun-20 19:22N 53°44' E 006°16'412.0
2018-Jun-20 19:00N 53°43' E 006°09'612.1
2018-Jun-20 18:30N 53°41' E 005°59'612.0
2018-Jun-20 18:00N 53°39' E 005°49'612.1
2018-Jun-20 17:30N 53°37' E 005°40'612.1
2018-Jun-20 17:00N 53°36' E 005°30'612.2
2018-Jun-20 16:30N 53°34' E 005°20'612.0
2018-Jun-20 16:00N 53°32' E 005°11'612.1
2018-Jun-20 15:30N 53°29' E 005°01'612.2
2018-Jun-20 15:00N 53°27' E 004°52'612.2
2018-Jun-20 14:30N 53°24' E 004°43'612.3
2018-Jun-20 14:00N 53°18' E 004°38'612.4
2018-Jun-20 13:30N 53°13' E 004°33'612.4
2018-Jun-20 13:00N 53°08' E 004°28'612.1
2018-Jun-20 12:30N 53°02' E 004°23'611.7
2018-Jun-20 12:00N 52°57' E 004°19'612.0
2018-Jun-20 11:30N 52°51' E 004°14'612.0
2018-Jun-20 11:00N 52°46' E 004°10'612.1
2018-Jun-20 10:30N 52°42' E 004°03'612.2
2018-Jun-20 10:00N 52°37' E 003°57'612.3
2018-Jun-20 09:30N 52°31' E 003°55'612.2
2018-Jun-20 09:00N 52°25' E 003°54'612.3
2018-Jun-20 08:30N 52°19' E 003°52'611.9
2018-Jun-20 08:00N 52°13' E 003°53'613.0
2018-Jun-20 07:31N 52°07' E 003°55'611.3
2018-Jun-20 07:00N 52°01' E 003°58'611.1
2018-Jun-20 06:31N 51°58' E 004°05'2 4.2
2018-Jun-20 06:00N 51°58' E 004°02'0 0.1
2018-Jun-20 05:28N 51°59' E 004°02'0 0.0
2018-Jun-20 04:58N 51°59' E 004°02'0 0.0
2018-Jun-20 04:28N 51°59' E 004°02'0 0.0
2018-Jun-20 03:58N 51°59' E 004°02'0 0.0
2018-Jun-20 03:28N 51°59' E 004°02'0 0.0
2018-Jun-20 02:58N 51°59' E 004°02'0 0.0
2018-Jun-20 02:28N 51°59' E 004°02'0 0.0
2018-Jun-20 01:58N 51°59' E 004°02'0 0.0
2018-Jun-20 00:58N 51°59' E 004°02'0 0.0
2018-Jun-20 00:28N 51°59' E 004°02'0 0.0
2018-Jun-19 23:58N 51°59' E 004°02'0 0.0
2018-Jun-19 23:28N 51°59' E 004°02'0 0.0
2018-Jun-19 22:58N 51°59' E 004°02'0 0.0
2018-Jun-19 22:28N 51°59' E 004°02'0 0.0
2018-Jun-19 21:58N 51°59' E 004°02'0 0.0
2018-Jun-19 21:28N 51°59' E 004°02'0 0.0
2018-Jun-19 20:58N 51°59' E 004°02'0 0.0
2018-Jun-19 20:28N 51°59' E 004°02'0 0.0
2018-Jun-19 19:58N 51°59' E 004°02'0 0.0
2018-Jun-19 19:28N 51°59' E 004°02'0 0.0
2018-Jun-19 18:58N 51°59' E 004°02'0 0.0
2018-Jun-19 18:28N 51°59' E 004°02'0 0.0
2018-Jun-19 17:58N 51°59' E 004°02'0 0.0
2018-Jun-19 17:28N 51°59' E 004°02'0 0.0
2018-Jun-19 16:58N 51°59' E 004°02'0 0.0
2018-Jun-19 16:28N 51°59' E 004°02'0 0.0
2018-Jun-19 15:58N 51°59' E 004°02'0 0.0
2018-Jun-19 15:28N 51°59' E 004°02'0 0.0
2018-Jun-19 14:58N 51°59' E 004°02'0 0.0
2018-Jun-19 14:28N 51°59' E 004°02'0 0.0
2018-Jun-19 13:58N 51°59' E 004°02'0 0.0
2018-Jun-19 13:28N 51°59' E 004°02'0 0.0
2018-Jun-19 12:58N 51°59' E 004°02'0 0.0
2018-Jun-19 12:28N 51°59' E 004°02'0 0.0
2018-Jun-19 11:58N 51°59' E 004°02'0 0.0
2018-Jun-19 11:28N 51°59' E 004°02'0 0.0
2018-Jun-19 10:58N 51°59' E 004°02'0 0.0
2018-Jun-19 10:28N 51°59' E 004°02'0 0.0
2018-Jun-19 09:58N 51°59' E 004°02'0 0.0
2018-Jun-19 09:28N 51°59' E 004°02'0 0.0
2018-Jun-19 08:58N 51°59' E 004°02'0 0.0
2018-Jun-19 08:28N 51°59' E 004°02'0 0.0
2018-Jun-19 07:58N 51°59' E 004°02'0 0.0
2018-Jun-19 07:28N 51°59' E 004°02'0 0.0
2018-Jun-19 06:58N 51°59' E 004°02'0 0.0
2018-Jun-19 06:28N 51°59' E 004°02'0 0.0
2018-Jun-19 05:58N 51°59' E 004°02'0 0.0
2018-Jun-19 05:28N 51°59' E 004°02'0 0.0
2018-Jun-19 04:58N 51°59' E 004°02'0 0.0
2018-Jun-19 04:28N 51°59' E 004°02'0 0.0
2018-Jun-19 03:58N 51°59' E 004°02'0 0.0
2018-Jun-19 03:28N 51°59' E 004°02'0 0.0
2018-Jun-19 02:58N 51°59' E 004°02'0 0.0
2018-Jun-19 02:28N 51°59' E 004°02'0 0.0
2018-Jun-19 01:58N 51°59' E 004°02'0 0.0
2018-Jun-19 01:28N 51°59' E 004°02'0 0.0
2018-Jun-19 00:58N 51°59' E 004°02'0 0.0
2018-Jun-19 00:28N 51°59' E 004°02'0 0.0
2018-Jun-18 23:58N 51°59' E 004°02'0 0.2
2018-Jun-18 23:30N 51°58' E 004°02'1 2.7
2018-Jun-18 23:00N 51°58' E 004°04'1 1.8
2018-Jun-18 22:30N 51°59' E 004°05'4 7.6
2018-Jun-18 22:01N 51°60' E 003°59'4 7.9
2018-Jun-18 21:30N 52°00' E 003°52'3 5.9
2018-Jun-18 21:00N 51°60' E 003°48'5 9.5
2018-Jun-18 20:30N 51°58' E 003°40'5 9.9
2018-Jun-18 20:00N 51°57' E 003°33'4 8.4
2018-Jun-18 19:30N 51°56' E 003°26'4 8.5
2018-Jun-18 18:59N 51°53' E 003°21'5 9.7
2018-Jun-18 18:30N 51°49' E 003°17'611.2
2018-Jun-18 18:00N 51°43' E 003°15'917.4
2018-Jun-18 17:30N 51°35' E 003°10'1020.4
2018-Jun-18 17:00N 51°27' E 002°60'713.7
2018-Jun-18 16:30N 51°24' E 003°10'816.1
2018-Jun-18 16:00N 51°25' E 003°23'814.8
2018-Jun-18 15:30N 51°26' E 003°34'4 8.6
2018-Jun-18 15:00N 51°26' E 003°41'714.3
2018-Jun-18 14:30N 51°21' E 003°49'714.6
2018-Jun-18 14:01N 51°25' E 003°58'510.8
2018-Jun-18 13:31N 51°22' E 004°05'611.0
2018-Jun-18 13:00N 51°22' E 004°14'4 7.9
2018-Jun-18 12:30N 51°18' E 004°16'0 0.7
2018-Jun-18 12:00N 51°18' E 004°16'0 0.0
2018-Jun-18 11:24N 51°18' E 004°16'0 0.0
2018-Jun-18 11:00N 51°18' E 004°16'0 0.0
2018-Jun-18 10:30N 51°18' E 004°16'0 0.0
2018-Jun-18 10:00N 51°18' E 004°16'0 0.0
2018-Jun-18 09:30N 51°18' E 004°16'0 0.0
2018-Jun-18 09:00N 51°18' E 004°16'0 0.0
2018-Jun-18 08:30N 51°18' E 004°16'0 0.0
2018-Jun-18 08:00N 51°18' E 004°16'0 0.0
2018-Jun-18 07:27N 51°18' E 004°16'0 0.0
2018-Jun-18 06:57N 51°18' E 004°16'0 0.0
2018-Jun-18 06:30N 51°18' E 004°16'0 0.0
2018-Jun-18 05:57N 51°18' E 004°16'0 0.0
2018-Jun-18 05:30N 51°18' E 004°16'0 0.0
2018-Jun-18 05:00N 51°18' E 004°16'0 0.0
2018-Jun-18 04:27N 51°18' E 004°16'0 0.0
2018-Jun-18 04:00N 51°18' E 004°16'0 0.0
2018-Jun-18 03:30N 51°18' E 004°16'0 0.0
2018-Jun-18 03:00N 51°18' E 004°16'0 0.0
2018-Jun-18 02:30N 51°18' E 004°16'0 0.0
2018-Jun-18 01:57N 51°18' E 004°16'0 0.0
2018-Jun-18 01:30N 51°18' E 004°16'0 0.0
2018-Jun-18 01:00N 51°18' E 004°16'0 0.0
2018-Jun-18 00:30N 51°18' E 004°16'0 0.0
2018-Jun-17 23:57N 51°18' E 004°16'0 0.0
2018-Jun-17 23:24N 51°18' E 004°16'0 0.0
2018-Jun-17 23:00N 51°18' E 004°16'0 0.0
2018-Jun-17 22:30N 51°18' E 004°16'0 0.0
2018-Jun-17 22:00N 51°18' E 004°16'0 0.0
2018-Jun-17 21:30N 51°18' E 004°16'0 0.0
2018-Jun-17 21:00N 51°18' E 004°16'0 0.0
2018-Jun-17 20:27N 51°18' E 004°16'0 0.0
2018-Jun-17 20:00N 51°18' E 004°16'0 0.0
2018-Jun-17 19:30N 51°18' E 004°16'0 0.0
2018-Jun-17 19:00N 51°18' E 004°16'0 0.0
2018-Jun-17 18:30N 51°18' E 004°16'0 0.0
2018-Jun-17 17:57N 51°18' E 004°16'0 0.0
2018-Jun-17 17:30N 51°18' E 004°16'0 0.0
2018-Jun-17 17:00N 51°18' E 004°16'0 0.0
2018-Jun-17 16:30N 51°18' E 004°16'0 0.0
2018-Jun-17 16:00N 51°18' E 004°16'0 0.0
2018-Jun-17 15:30N 51°18' E 004°16'0 0.0
2018-Jun-17 15:00N 51°18' E 004°16'0 0.0
2018-Jun-17 14:30N 51°18' E 004°16'0 0.0
2018-Jun-17 14:00N 51°18' E 004°16'0 0.0
2018-Jun-17 13:30N 51°18' E 004°16'0 0.0
2018-Jun-17 13:00N 51°18' E 004°16'0 0.0
2018-Jun-17 12:30N 51°18' E 004°16'0 0.0
2018-Jun-17 11:57N 51°18' E 004°16'0 0.0
2018-Jun-17 11:30N 51°18' E 004°16'0 0.0
2018-Jun-17 11:00N 51°18' E 004°16'0 0.0
2018-Jun-17 10:30N 51°18' E 004°16'0 0.8
2018-Jun-17 10:00N 51°18' E 004°16'1 2.6
2018-Jun-17 09:30N 51°19' E 004°16'4 8.3
2018-Jun-17 09:00N 51°23' E 004°13'510.1
2018-Jun-17 08:30N 51°22' E 004°05'510.6
2018-Jun-17 08:00N 51°26' E 003°59'612.6
2018-Jun-17 07:31N 51°21' E 003°53'713.5
2018-Jun-17 07:00N 51°24' E 003°43'510.4
2018-Jun-17 06:30N 51°26' E 003°35'4 8.6
2018-Jun-17 06:01N 51°25' E 003°28'917.3
2018-Jun-17 05:31N 51°25' E 003°15'1019.0
2018-Jun-17 05:00N 51°25' E 002°59'918.0
2018-Jun-17 04:30N 51°23' E 002°45'4 8.7
2018-Jun-17 04:00N 51°22' E 002°38'2 4.2
2018-Jun-17 03:30N 51°22' E 002°35'4 8.6
2018-Jun-17 03:00N 51°22' E 002°28'611.5
2018-Jun-17 02:30N 51°19' E 002°20'611.5
2018-Jun-17 02:01N 51°15' E 002°13'611.6
2018-Jun-17 01:31N 51°12' E 002°05'714.0
2018-Jun-17 01:00N 51°09' E 001°55'815.7
2018-Jun-17 00:31N 51°05' E 001°45'815.5
2018-Jun-17 00:01N 50°59' E 001°37'714.5
2018-Jun-16 23:31N 50°53' E 001°30'713.4
2018-Jun-16 23:00N 50°47' E 001°25'613.0
2018-Jun-16 22:30N 50°41' E 001°20'714.4
2018-Jun-16 22:00N 50°36' E 001°12'815.0
2018-Jun-16 21:28N 50°31' E 001°03'714.7
2018-Jun-16 20:58N 50°28' E 000°53'814.9
2018-Jun-16 20:25N 50°25' E 000°40'614.6
2018-Jun-16 19:58N 50°24' E 000°30'916.7
2018-Jun-16 19:25N 50°22' E 000°16'818.7
2018-Jun-16 19:00N 50°22' E 000°04'918.6
2018-Jun-16 18:30N 50°22' W 000°11'918.3
2018-Jun-16 18:00N 50°25' W 000°24'918.3
2018-Jun-16 17:30N 50°29' W 000°37'918.3
2018-Jun-16 17:00N 50°34' W 000°49'714.3
2018-Jun-16 16:30N 50°40' W 000°57'5 9.5
2018-Jun-16 16:01N 50°43' W 001°01'816.6
2018-Jun-16 15:30N 50°46' W 001°14'5 9.0
2018-Jun-16 15:00N 50°49' W 001°18'3 6.8
2018-Jun-16 14:30N 50°52' W 001°22'3 5.9
2018-Jun-16 14:00N 50°54' W 001°25'1 2.9
2018-Jun-16 13:30N 50°54' W 001°27'0 0.1
2018-Jun-16 06:17N 50°55' W 001°28'0 0.0
2018-Jun-16 05:59N 50°55' W 001°28'0 0.0
2018-Jun-16 05:29N 50°55' W 001°28'0 0.0
2018-Jun-15 16:09N 50°55' W 001°28'0 0.2
2018-Jun-15 16:01N 50°55' W 001°28'2 3.0
2018-Jun-15 15:30N 50°54' W 001°25'3 6.3
2018-Jun-15 15:00N 50°52' W 001°22'4 8.7
2018-Jun-15 14:30N 50°49' W 001°17'4 7.3
2018-Jun-15 14:00N 50°46' W 001°14'917.4
2018-Jun-15 13:31N 50°43' W 001°01'713.0
2018-Jun-15 13:00N 50°37' W 000°57'4 8.6
2018-Jun-15 12:30N 50°33' W 000°57'4 7.6
2018-Jun-15 12:00N 50°29' W 000°57'510.7
2018-Jun-15 11:30N 50°24' W 000°55'510.2
2018-Jun-15 11:00N 50°19' W 000°57'5 9.8
2018-Jun-15 10:30N 50°15' W 001°03'611.3
2018-Jun-15 10:00N 50°13' W 001°11'  
Track history (hours):
 
Tides and Currents Weather Stations Pressure Air Temp Water Temp Dewpoint Dewpoint Depression Visibility Wind Speed Wind Dir Waves Ship Positions

OOCL Asia

Last reported at 2018-Jun-25 09:30 UTC. Time now 2018-Jun-25 09:35 UTC.
Position N 49°46' W 008°03'.

Length 323 m; beam 42.8 m; draft 14.5 m.

Type: Cargo ship. MMSI: 477105600.

Date/timePositionNaut miles runAvg speedWind from/ knotsBaromVisibWave heightAir tempDewpointWater temp
2018-Jun-25 09:30N 49°46' W 008°03'1020.3
2018-Jun-25 09:00N 49°45' W 007°47'1020.2
2018-Jun-25 08:30N 49°44' W 007°32'1020.3
2018-Jun-25 08:00N 49°44' W 007°16'1020.3
2018-Jun-25 07:30N 49°43' W 007°01'918.6
2018-Jun-25 07:00N 49°43' W 006°46'816.3
2018-Jun-25 06:30N 49°43' W 006°34'816.2
2018-Jun-25 06:00N 49°43' W 006°21'251597.9
2018-Jun-25 06:00N 49°42' W 005°42'1735.7 090 / 71023.010.8 18.0 4.514.0
2018-Jun-25 05:30N 49°42' W 006°09'815.7
2018-Jun-25 05:00N 49°43' W 005°56'815.6
2018-Jun-25 04:31N 49°43' W 005°45'815.4
2018-Jun-25 04:00N 49°43' W 005°33'915.4
2018-Jun-25 03:26N 49°43' W 005°19'615.1
2018-Jun-25 03:00N 49°44' W 005°09'714.6
2018-Jun-25 02:30N 49°44' W 004°58'715.0
2018-Jun-25 02:00N 49°45' W 004°46'815.1
2018-Jun-25 01:30N 49°46' W 004°35'815.3
2018-Jun-25 01:01N 49°48' W 004°23'815.5
2018-Jun-25 00:30N 49°49' W 004°11'815.9
2018-Jun-25 00:00N 49°51' W 003°59'816.2
2018-Jun-24 23:30N 49°52' W 003°47'816.5
2018-Jun-24 23:00N 49°54' W 003°34'816.7
2018-Jun-24 22:30N 49°55' W 003°22'816.8
2018-Jun-24 22:00N 49°57' W 003°09'816.4
2018-Jun-24 21:30N 49°59' W 002°57'816.2
2018-Jun-24 21:01N 50°01' W 002°44'815.7
2018-Jun-24 20:30N 50°03' W 002°32'815.1
2018-Jun-24 20:00N 50°04' W 002°21'714.4
2018-Jun-24 19:30N 50°04' W 002°10'713.8
2018-Jun-24 19:00N 50°05' W 001°59'612.9
2018-Jun-24 18:30N 50°04' W 001°49'713.4
2018-Jun-24 18:00N 49°59' W 001°42'1012.5
2018-Jun-24 17:12N 49°54' W 001°28'312.2
2018-Jun-24 16:59N 49°53' W 001°24'612.1
2018-Jun-24 16:30N 49°51' W 001°16'612.2
2018-Jun-24 16:00N 49°49' W 001°07'713.1
2018-Jun-24 15:31N 49°46' W 000°58'714.3
2018-Jun-24 15:01N 49°43' W 000°48'815.2
2018-Jun-24 14:31N 49°40' W 000°37'815.8
2018-Jun-24 14:00N 49°36' W 000°26'815.9
2018-Jun-24 13:31N 49°33' W 000°15'714.6
2018-Jun-24 13:01N 49°31' W 000°04'714.3
2018-Jun-24 12:30N 49°29' E 000°06'3 5.0
2018-Jun-24 12:00N 49°29' E 000°10'0 0.0
2018-Jun-24 11:29N 49°29' E 000°10'0 0.0
2018-Jun-24 10:59N 49°29' E 000°10'0 0.0
2018-Jun-24 10:29N 49°29' E 000°10'0 0.0
2018-Jun-24 09:59N 49°29' E 000°10'0 0.0
2018-Jun-24 09:29N 49°29' E 000°10'0 0.0
2018-Jun-24 08:59N 49°29' E 000°10'0 0.0
2018-Jun-24 08:29N 49°29' E 000°10'0 0.0
2018-Jun-24 07:59N 49°29' E 000°10'0 0.0
2018-Jun-24 07:29N 49°29' E 000°10'0 0.0
2018-Jun-24 06:59N 49°29' E 000°10'0 0.0
2018-Jun-24 06:29N 49°29' E 000°10'0 0.0
2018-Jun-24 05:59N 49°29' E 000°10'0 0.0
2018-Jun-24 05:29N 49°29' E 000°10'0 0.0
2018-Jun-24 04:59N 49°29' E 000°10'0 0.0
2018-Jun-24 04:29N 49°29' E 000°10'0 0.0
2018-Jun-24 03:59N 49°29' E 000°10'0 0.0
2018-Jun-24 03:29N 49°29' E 000°10'0 0.0
2018-Jun-24 02:59N 49°29' E 000°10'0 0.0
2018-Jun-24 02:29N 49°29' E 000°10'0 0.0
2018-Jun-24 01:59N 49°29' E 000°10'0 0.0
2018-Jun-24 01:29N 49°29' E 000°10'0 0.0
2018-Jun-24 00:59N 49°29' E 000°10'0 0.0
2018-Jun-24 00:29N 49°29' E 000°10'0 0.0
2018-Jun-23 23:59N 49°29' E 000°10'0 0.0
2018-Jun-23 23:29N 49°29' E 000°10'0 0.0
2018-Jun-23 22:59N 49°29' E 000°10'0 0.0
2018-Jun-23 22:29N 49°29' E 000°10'0 0.0
2018-Jun-23 21:59N 49°29' E 000°10'0 0.0
2018-Jun-23 21:29N 49°29' E 000°10'0 0.0
2018-Jun-23 20:59N 49°29' E 000°10'0 0.0
2018-Jun-23 20:29N 49°29' E 000°10'0 0.0
2018-Jun-23 19:59N 49°29' E 000°10'0 0.0
2018-Jun-23 19:29N 49°29' E 000°10'0 0.1
2018-Jun-23 19:01N 49°29' E 000°10'1 2.9
2018-Jun-23 18:30N 49°28' E 000°08'4 8.3
2018-Jun-23 18:00N 49°30' E 000°02'713.5
2018-Jun-23 17:30N 49°32' W 000°08'4 7.4
2018-Jun-23 17:00N 49°33' W 000°13'5 9.9
2018-Jun-23 16:30N 49°37' W 000°19'611.5
2018-Jun-23 16:00N 49°42' W 000°21'612.5
2018-Jun-23 15:30N 49°48' W 000°24'612.6
2018-Jun-23 15:00N 49°54' W 000°22'612.7
2018-Jun-23 14:30N 50°01' W 000°19'612.9
2018-Jun-23 14:00N 50°07' W 000°16'713.3
2018-Jun-23 13:30N 50°13' W 000°12'713.9
2018-Jun-23 13:00N 50°19' W 000°08'714.5
2018-Jun-23 12:30N 50°26' W 000°03'713.7
2018-Jun-23 12:00N 50°30' E 000°06'713.9
2018-Jun-23 11:30N 50°32' E 000°16'713.8
2018-Jun-23 11:01N 50°35' E 000°26'713.7
2018-Jun-23 10:30N 50°38' E 000°36'713.9
2018-Jun-23 10:00N 50°42' E 000°45'714.9
2018-Jun-23 09:30N 50°47' E 000°54'714.6
2018-Jun-23 09:00N 50°51' E 001°03'714.1
2018-Jun-23 08:31N 50°56' E 001°11'713.5
2018-Jun-23 08:00N 51°00' E 001°20'713.1
2018-Jun-23 07:30N 51°04' E 001°28'714.1
2018-Jun-23 07:00N 51°09' E 001°36'713.0
2018-Jun-23 06:30N 51°13' E 001°44'713.4
2018-Jun-23 06:00N 51°19' E 001°51'713.7
2018-Jun-23 05:30N 51°24' E 001°57'714.4
2018-Jun-23 05:00N 51°30' E 002°03'815.6
2018-Jun-23 04:30N 51°37' E 002°10'815.9
2018-Jun-23 04:00N 51°42' E 002°19'714.5
2018-Jun-23 03:30N 51°48' E 002°27'714.4
2018-Jun-23 03:00N 51°53' E 002°34'714.3
2018-Jun-23 02:30N 51°59' E 002°42'714.0
2018-Jun-23 02:00N 52°04' E 002°49'714.2
2018-Jun-23 01:30N 52°10' E 002°57'714.1
2018-Jun-23 01:00N 52°16' E 003°02'714.0
2018-Jun-23 00:30N 52°21' E 003°09'713.9
2018-Jun-23 00:00N 52°27' E 003°17'714.3
2018-Jun-22 23:30N 52°32' E 003°24'714.2
2018-Jun-22 23:01N 52°38' E 003°31'713.8
2018-Jun-22 22:30N 52°43' E 003°38'613.2
2018-Jun-22 22:00N 52°48' E 003°45'713.5
2018-Jun-22 21:30N 52°53' E 003°52'713.8
2018-Jun-22 21:00N 52°58' E 004°01'914.4
2018-Jun-22 20:21N 53°04' E 004°13'514.8
2018-Jun-22 20:00N 53°07' E 004°20'816.2
2018-Jun-22 19:30N 53°14' E 004°27'918.1
2018-Jun-22 19:00N 53°22' E 004°33'917.0
2018-Jun-22 18:30N 53°29' E 004°42'917.4
2018-Jun-22 18:00N 53°33' E 004°55'816.9
2018-Jun-22 17:30N 53°36' E 005°08'816.5
2018-Jun-22 17:00N 53°39' E 005°21'916.1
2018-Jun-22 16:28N 53°42' E 005°35'1015.5
2018-Jun-22 15:50N 53°45' E 005°51'7514.0
2018-Jun-22 10:29N 53°52' E 007°58'816.5
2018-Jun-22 10:00N 53°47' E 008°09'917.8
2018-Jun-22 09:30N 53°42' E 008°21'815.4
2018-Jun-22 09:00N 53°36' E 008°30'1 2.8
2018-Jun-22 08:30N 53°35' E 008°32'0 0.0
2018-Jun-22 08:00N 53°35' E 008°32'0 0.0
2018-Jun-22 07:30N 53°35' E 008°32'0 0.0
2018-Jun-22 07:00N 53°35' E 008°32'0 0.0
2018-Jun-22 06:30N 53°35' E 008°32'0 0.0
2018-Jun-22 06:00N 53°35' E 008°32'0 0.0
2018-Jun-22 05:30N 53°35' E 008°32'0 0.0
2018-Jun-22 05:00N 53°35' E 008°32'0 0.0
2018-Jun-22 04:30N 53°35' E 008°32'0 0.0
2018-Jun-22 04:00N 53°35' E 008°32'0 0.0
2018-Jun-22 03:30N 53°35' E 008°32'0 0.0
2018-Jun-22 03:00N 53°35' E 008°32'0 0.0
2018-Jun-22 02:30N 53°35' E 008°32'0 0.0
2018-Jun-22 02:00N 53°35' E 008°32'0 0.0
2018-Jun-22 01:30N 53°35' E 008°32'0 0.0
2018-Jun-22 00:57N 53°35' E 008°32'0 0.0
2018-Jun-22 00:30N 53°35' E 008°32'0 0.0
2018-Jun-22 00:00N 53°35' E 008°32'0 0.1
2018-Jun-21 23:30N 53°35' E 008°32'0 0.0
2018-Jun-21 23:00N 53°35' E 008°32'0 0.0
2018-Jun-21 22:30N 53°35' E 008°32'0 0.0
2018-Jun-21 22:00N 53°35' E 008°32'0 0.0
2018-Jun-21 21:30N 53°35' E 008°32'0 0.0
2018-Jun-21 21:00N 53°35' E 008°32'0 0.0
2018-Jun-21 20:30N 53°35' E 008°32'0 0.0
2018-Jun-21 20:00N 53°35' E 008°32'0 0.0
2018-Jun-21 19:30N 53°35' E 008°32'0 0.0
2018-Jun-21 19:00N 53°35' E 008°32'0 0.0
2018-Jun-21 18:30N 53°35' E 008°32'0 0.0
2018-Jun-21 18:00N 53°35' E 008°32'0 0.0
2018-Jun-21 17:30N 53°35' E 008°32'0 0.0
2018-Jun-21 17:00N 53°35' E 008°32'0 0.0
2018-Jun-21 16:30N 53°35' E 008°32'0 0.0
2018-Jun-21 16:00N 53°35' E 008°32'0 0.0
2018-Jun-21 15:30N 53°35' E 008°32'0 0.0
2018-Jun-21 15:00N 53°35' E 008°32'0 0.0
2018-Jun-21 14:30N 53°35' E 008°32'0 0.0
2018-Jun-21 14:00N 53°35' E 008°32'0 0.0
2018-Jun-21 13:30N 53°35' E 008°32'0 0.1
2018-Jun-21 13:00N 53°35' E 008°32'0 0.1
2018-Jun-21 12:30N 53°35' E 008°32'0 0.0
2018-Jun-21 12:00N 53°35' E 008°32'0 0.0
2018-Jun-21 11:30N 53°35' E 008°32'0 0.0
2018-Jun-21 11:00N 53°35' E 008°32'0 0.0
2018-Jun-21 10:30N 53°35' E 008°32'0 0.0
2018-Jun-21 10:00N 53°35' E 008°32'0 0.0
2018-Jun-21 09:30N 53°35' E 008°32'0 0.0
2018-Jun-21 09:00N 53°35' E 008°32'0 0.0
2018-Jun-21 08:30N 53°35' E 008°32'0 0.0
2018-Jun-21 08:00N 53°35' E 008°32'0 0.0
2018-Jun-21 07:30N 53°35' E 008°32'0 0.0
2018-Jun-21 07:00N 53°35' E 008°32'0 0.0
2018-Jun-21 06:30N 53°35' E 008°32'0 0.0
2018-Jun-21 06:00N 53°35' E 008°32'0 0.0
2018-Jun-21 05:30N 53°35' E 008°32'0 0.0
2018-Jun-21 05:00N 53°35' E 008°32'0 0.0
2018-Jun-21 04:30N 53°35' E 008°32'0 0.0
2018-Jun-21 04:00N 53°35' E 008°32'0 0.0
2018-Jun-21 03:30N 53°35' E 008°32'0 0.0
2018-Jun-21 03:00N 53°35' E 008°32'0 0.4
2018-Jun-21 02:30N 53°35' E 008°32'2 3.1
2018-Jun-21 02:00N 53°36' E 008°30'713.7
2018-Jun-21 01:30N 53°41' E 008°21'815.7
2018-Jun-21 01:00N 53°46' E 008°11'919.0
2018-Jun-21 00:30N 53°51' E 007°58'812.8
2018-Jun-20 23:51N 53°53' E 007°44'5311.8
2018-Jun-20 19:22N 53°44' E 006°16'412.0
2018-Jun-20 19:00N 53°43' E 006°09'612.1
2018-Jun-20 18:30N 53°41' E 005°59'612.0
2018-Jun-20 18:00N 53°39' E 005°49'612.1
2018-Jun-20 17:30N 53°37' E 005°40'612.1
2018-Jun-20 17:00N 53°36' E 005°30'612.2
2018-Jun-20 16:30N 53°34' E 005°20'612.0
2018-Jun-20 16:00N 53°32' E 005°11'612.1
2018-Jun-20 15:30N 53°29' E 005°01'612.2
2018-Jun-20 15:00N 53°27' E 004°52'612.2
2018-Jun-20 14:30N 53°24' E 004°43'612.3
2018-Jun-20 14:00N 53°18' E 004°38'612.4
2018-Jun-20 13:30N 53°13' E 004°33'612.4
2018-Jun-20 13:00N 53°08' E 004°28'612.1
2018-Jun-20 12:30N 53°02' E 004°23'611.7
2018-Jun-20 12:00N 52°57' E 004°19'612.0
2018-Jun-20 11:30N 52°51' E 004°14'612.0
2018-Jun-20 11:00N 52°46' E 004°10'612.1
2018-Jun-20 10:30N 52°42' E 004°03'612.2
2018-Jun-20 10:00N 52°37' E 003°57'612.3
2018-Jun-20 09:30N 52°31' E 003°55'612.2
2018-Jun-20 09:00N 52°25' E 003°54'612.3
2018-Jun-20 08:30N 52°19' E 003°52'611.9
2018-Jun-20 08:00N 52°13' E 003°53'613.0
2018-Jun-20 07:31N 52°07' E 003°55'611.3
2018-Jun-20 07:00N 52°01' E 003°58'611.1
2018-Jun-20 06:31N 51°58' E 004°05'2 4.2
2018-Jun-20 06:00N 51°58' E 004°02'0 0.1
2018-Jun-20 05:28N 51°59' E 004°02'0 0.0
2018-Jun-20 04:58N 51°59' E 004°02'0 0.0
2018-Jun-20 04:28N 51°59' E 004°02'0 0.0
2018-Jun-20 03:58N 51°59' E 004°02'0 0.0
2018-Jun-20 03:28N 51°59' E 004°02'0 0.0
2018-Jun-20 02:58N 51°59' E 004°02'0 0.0
2018-Jun-20 02:28N 51°59' E 004°02'0 0.0
2018-Jun-20 01:58N 51°59' E 004°02'0 0.0
2018-Jun-20 00:58N 51°59' E 004°02'0 0.0
2018-Jun-20 00:28N 51°59' E 004°02'0 0.0
2018-Jun-19 23:58N 51°59' E 004°02'0 0.0
2018-Jun-19 23:28N 51°59' E 004°02'0 0.0
2018-Jun-19 22:58N 51°59' E 004°02'0 0.0
2018-Jun-19 22:28N 51°59' E 004°02'0 0.0
2018-Jun-19 21:58N 51°59' E 004°02'0 0.0
2018-Jun-19 21:28N 51°59' E 004°02'0 0.0
2018-Jun-19 20:58N 51°59' E 004°02'0 0.0
2018-Jun-19 20:28N 51°59' E 004°02'0 0.0
2018-Jun-19 19:58N 51°59' E 004°02'0 0.0
2018-Jun-19 19:28N 51°59' E 004°02'0 0.0
2018-Jun-19 18:58N 51°59' E 004°02'0 0.0
2018-Jun-19 18:28N 51°59' E 004°02'0 0.0
2018-Jun-19 17:58N 51°59' E 004°02'0 0.0
2018-Jun-19 17:28N 51°59' E 004°02'0 0.0
2018-Jun-19 16:58N 51°59' E 004°02'0 0.0
2018-Jun-19 16:28N 51°59' E 004°02'0 0.0
2018-Jun-19 15:58N 51°59' E 004°02'0 0.0
2018-Jun-19 15:28N 51°59' E 004°02'0 0.0
2018-Jun-19 14:58N 51°59' E 004°02'0 0.0
2018-Jun-19 14:28N 51°59' E 004°02'0 0.0
2018-Jun-19 13:58N 51°59' E 004°02'0 0.0
2018-Jun-19 13:28N 51°59' E 004°02'0 0.0
2018-Jun-19 12:58N 51°59' E 004°02'0 0.0
2018-Jun-19 12:28N 51°59' E 004°02'0 0.0
2018-Jun-19 11:58N 51°59' E 004°02'0 0.0
2018-Jun-19 11:28N 51°59' E 004°02'0 0.0
2018-Jun-19 10:58N 51°59' E 004°02'0 0.0
2018-Jun-19 10:28N 51°59' E 004°02'0 0.0
2018-Jun-19 09:58N 51°59' E 004°02'0 0.0
2018-Jun-19 09:28N 51°59' E 004°02'0 0.0
2018-Jun-19 08:58N 51°59' E 004°02'0 0.0
2018-Jun-19 08:28N 51°59' E 004°02'0 0.0
2018-Jun-19 07:58N 51°59' E 004°02'0 0.0
2018-Jun-19 07:28N 51°59' E 004°02'0 0.0
2018-Jun-19 06:58N 51°59' E 004°02'0 0.0
2018-Jun-19 06:28N 51°59' E 004°02'0 0.0
2018-Jun-19 05:58N 51°59' E 004°02'0 0.0
2018-Jun-19 05:28N 51°59' E 004°02'0 0.0
2018-Jun-19 04:58N 51°59' E 004°02'0 0.0
2018-Jun-19 04:28N 51°59' E 004°02'0 0.0
2018-Jun-19 03:58N 51°59' E 004°02'0 0.0
2018-Jun-19 03:28N 51°59' E 004°02'0 0.0
2018-Jun-19 02:58N 51°59' E 004°02'0 0.0
2018-Jun-19 02:28N 51°59' E 004°02'0 0.0
2018-Jun-19 01:58N 51°59' E 004°02'0 0.0
2018-Jun-19 01:28N 51°59' E 004°02'0 0.0
2018-Jun-19 00:58N 51°59' E 004°02'0 0.0
2018-Jun-19 00:28N 51°59' E 004°02'0 0.0
2018-Jun-18 23:58N 51°59' E 004°02'0 0.2
2018-Jun-18 23:30N 51°58' E 004°02'1 2.7
2018-Jun-18 23:00N 51°58' E 004°04'1 1.8
2018-Jun-18 22:30N 51°59' E 004°05'4 7.6
2018-Jun-18 22:01N 51°60' E 003°59'4 7.9
2018-Jun-18 21:30N 52°00' E 003°52'3 5.9
2018-Jun-18 21:00N 51°60' E 003°48'5 9.5
2018-Jun-18 20:30N 51°58' E 003°40'5 9.9
2018-Jun-18 20:00N 51°57' E 003°33'4 8.4
2018-Jun-18 19:30N 51°56' E 003°26'4 8.5
2018-Jun-18 18:59N 51°53' E 003°21'5 9.7
2018-Jun-18 18:30N 51°49' E 003°17'611.2
2018-Jun-18 18:00N 51°43' E 003°15'917.4
2018-Jun-18 17:30N 51°35' E 003°10'1020.4
2018-Jun-18 17:00N 51°27' E 002°60'713.7
2018-Jun-18 16:30N 51°24' E 003°10'816.1
2018-Jun-18 16:00N 51°25' E 003°23'814.8
2018-Jun-18 15:30N 51°26' E 003°34'4 8.6
2018-Jun-18 15:00N 51°26' E 003°41'714.3
2018-Jun-18 14:30N 51°21' E 003°49'714.6
2018-Jun-18 14:01N 51°25' E 003°58'510.8
2018-Jun-18 13:31N 51°22' E 004°05'611.0
2018-Jun-18 13:00N 51°22' E 004°14'4 7.9
2018-Jun-18 12:30N 51°18' E 004°16'0 0.7
2018-Jun-18 12:00N 51°18' E 004°16'0 0.0
2018-Jun-18 11:24N 51°18' E 004°16'0 0.0
2018-Jun-18 11:00N 51°18' E 004°16'0 0.0
2018-Jun-18 10:30N 51°18' E 004°16'0 0.0
2018-Jun-18 10:00N 51°18' E 004°16'0 0.0
2018-Jun-18 09:30N 51°18' E 004°16'0 0.0
2018-Jun-18 09:00N 51°18' E 004°16'0 0.0
2018-Jun-18 08:30N 51°18' E 004°16'0 0.0
2018-Jun-18 08:00N 51°18' E 004°16'0 0.0
2018-Jun-18 07:27N 51°18' E 004°16'0 0.0
2018-Jun-18 06:57N 51°18' E 004°16'0 0.0
2018-Jun-18 06:30N 51°18' E 004°16'0 0.0
2018-Jun-18 05:57N 51°18' E 004°16'0 0.0
2018-Jun-18 05:30N 51°18' E 004°16'0 0.0
2018-Jun-18 05:00N 51°18' E 004°16'0 0.0
2018-Jun-18 04:27N 51°18' E 004°16'0 0.0
2018-Jun-18 04:00N 51°18' E 004°16'0 0.0
2018-Jun-18 03:30N 51°18' E 004°16'0 0.0
2018-Jun-18 03:00N 51°18' E 004°16'0 0.0
2018-Jun-18 02:30N 51°18' E 004°16'0 0.0
2018-Jun-18 01:57N 51°18' E 004°16'0 0.0
2018-Jun-18 01:30N 51°18' E 004°16'0 0.0
2018-Jun-18 01:00N 51°18' E 004°16'0 0.0
2018-Jun-18 00:30N 51°18' E 004°16'0 0.0
2018-Jun-17 23:57N 51°18' E 004°16'0 0.0
2018-Jun-17 23:24N 51°18' E 004°16'0 0.0
2018-Jun-17 23:00N 51°18' E 004°16'0 0.0
2018-Jun-17 22:30N 51°18' E 004°16'0 0.0
2018-Jun-17 22:00N 51°18' E 004°16'0 0.0
2018-Jun-17 21:30N 51°18' E 004°16'0 0.0
2018-Jun-17 21:00N 51°18' E 004°16'0 0.0
2018-Jun-17 20:27N 51°18' E 004°16'0 0.0
2018-Jun-17 20:00N 51°18' E 004°16'0 0.0
2018-Jun-17 19:30N 51°18' E 004°16'0 0.0
2018-Jun-17 19:00N 51°18' E 004°16'0 0.0
2018-Jun-17 18:30N 51°18' E 004°16'0 0.0
2018-Jun-17 17:57N 51°18' E 004°16'0 0.0
2018-Jun-17 17:30N 51°18' E 004°16'0 0.0
2018-Jun-17 17:00N 51°18' E 004°16'0 0.0
2018-Jun-17 16:30N 51°18' E 004°16'0 0.0
2018-Jun-17 16:00N 51°18' E 004°16'0 0.0
2018-Jun-17 15:30N 51°18' E 004°16'0 0.0
2018-Jun-17 15:00N 51°18' E 004°16'0 0.0
2018-Jun-17 14:30N 51°18' E 004°16'0 0.0
2018-Jun-17 14:00N 51°18' E 004°16'0 0.0
2018-Jun-17 13:30N 51°18' E 004°16'0 0.0
2018-Jun-17 13:00N 51°18' E 004°16'0 0.0
2018-Jun-17 12:30N 51°18' E 004°16'0 0.0
2018-Jun-17 11:57N 51°18' E 004°16'0 0.0
2018-Jun-17 11:30N 51°18' E 004°16'0 0.0
2018-Jun-17 11:00N 51°18' E 004°16'0 0.0
2018-Jun-17 10:30N 51°18' E 004°16'0 0.8
2018-Jun-17 10:00N 51°18' E 004°16'1 2.6
2018-Jun-17 09:30N 51°19' E 004°16'4 8.3
2018-Jun-17 09:00N 51°23' E 004°13'510.1
2018-Jun-17 08:30N 51°22' E 004°05'510.6
2018-Jun-17 08:00N 51°26' E 003°59'612.6
2018-Jun-17 07:31N 51°21' E 003°53'713.5
2018-Jun-17 07:00N 51°24' E 003°43'510.4
2018-Jun-17 06:30N 51°26' E 003°35'4 8.6
2018-Jun-17 06:01N 51°25' E 003°28'917.3
2018-Jun-17 05:31N 51°25' E 003°15'1019.0
2018-Jun-17 05:00N 51°25' E 002°59'918.0
2018-Jun-17 04:30N 51°23' E 002°45'4 8.7
2018-Jun-17 04:00N 51°22' E 002°38'2 4.2
2018-Jun-17 03:30N 51°22' E 002°35'4 8.6
2018-Jun-17 03:00N 51°22' E 002°28'611.5
2018-Jun-17 02:30N 51°19' E 002°20'611.5
2018-Jun-17 02:01N 51°15' E 002°13'611.6
2018-Jun-17 01:31N 51°12' E 002°05'714.0
2018-Jun-17 01:00N 51°09' E 001°55'815.7
2018-Jun-17 00:31N 51°05' E 001°45'815.5
2018-Jun-17 00:01N 50°59' E 001°37'714.5
2018-Jun-16 23:31N 50°53' E 001°30'713.4
2018-Jun-16 23:00N 50°47' E 001°25'613.0
2018-Jun-16 22:30N 50°41' E 001°20'714.4
2018-Jun-16 22:00N 50°36' E 001°12'815.0
2018-Jun-16 21:28N 50°31' E 001°03'714.7
2018-Jun-16 20:58N 50°28' E 000°53'814.9
2018-Jun-16 20:25N 50°25' E 000°40'614.6
2018-Jun-16 19:58N 50°24' E 000°30'916.7
2018-Jun-16 19:25N 50°22' E 000°16'818.7
2018-Jun-16 19:00N 50°22' E 000°04'918.6
2018-Jun-16 18:30N 50°22' W 000°11'918.3
2018-Jun-16 18:00N 50°25' W 000°24'918.3
2018-Jun-16 17:30N 50°29' W 000°37'918.3
2018-Jun-16 17:00N 50°34' W 000°49'714.3
2018-Jun-16 16:30N 50°40' W 000°57'5 9.5
2018-Jun-16 16:01N 50°43' W 001°01'816.6
2018-Jun-16 15:30N 50°46' W 001°14'5 9.0
2018-Jun-16 15:00N 50°49' W 001°18'3 6.8
2018-Jun-16 14:30N 50°52' W 001°22'3 5.9
2018-Jun-16 14:00N 50°54' W 001°25'1 2.9
2018-Jun-16 13:30N 50°54' W 001°27'0 0.1
2018-Jun-16 06:17N 50°55' W 001°28'0 0.0
2018-Jun-16 05:59N 50°55' W 001°28'0 0.0
2018-Jun-16 05:29N 50°55' W 001°28'0 0.0
2018-Jun-15 16:09N 50°55' W 001°28'0 0.2
2018-Jun-15 16:01N 50°55' W 001°28'2 3.0
2018-Jun-15 15:30N 50°54' W 001°25'3 6.3
2018-Jun-15 15:00N 50°52' W 001°22'4 8.7
2018-Jun-15 14:30N 50°49' W 001°17'4 7.3
2018-Jun-15 14:00N 50°46' W 001°14'917.4
2018-Jun-15 13:31N 50°43' W 001°01'713.0
2018-Jun-15 13:00N 50°37' W 000°57'4 8.6
2018-Jun-15 12:30N 50°33' W 000°57'4 7.6
2018-Jun-15 12:00N 50°29' W 000°57'510.7
2018-Jun-15 11:30N 50°24' W 000°55'510.2
2018-Jun-15 11:00N 50°19' W 000°57'5 9.8
2018-Jun-15 10:30N 50°15' W 001°03'611.3
2018-Jun-15 10:00N 50°13' W 001°11'  

Dump ship's entire track history